createdAt,value
2023-05-29T00:01:34.194Z,8.80
2023-05-29T00:04:01.579Z,8.80
2023-05-29T00:06:29.000Z,8.80
2023-05-29T00:08:55.901Z,8.70
2023-05-29T00:11:24.118Z,8.60
2023-05-29T00:13:51.120Z,8.50
2023-05-29T00:16:19.151Z,8.50
2023-05-29T00:18:49.121Z,8.50
2023-05-29T00:21:15.978Z,8.40
2023-05-29T00:23:43.799Z,8.40
2023-05-29T00:26:13.085Z,8.40
2023-05-29T00:28:39.893Z,8.40
2023-05-29T00:31:06.908Z,8.40
2023-05-29T00:33:33.781Z,8.40
2023-05-29T00:36:00.592Z,8.30
2023-05-29T00:38:27.394Z,8.30
2023-05-29T00:40:54.167Z,8.10
2023-05-29T00:43:21.393Z,8.00
2023-05-29T00:45:48.218Z,8.00
2023-05-29T00:48:15.197Z,8.10
2023-05-29T00:50:43.010Z,8.00
2023-05-29T00:53:10.472Z,8.00
2023-05-29T00:55:37.570Z,8.00
2023-05-29T00:58:05.845Z,7.90
2023-05-29T01:00:34.368Z,7.90
2023-05-29T01:03:03.925Z,7.90
2023-05-29T01:05:32.107Z,7.90
2023-05-29T01:07:59.016Z,7.90
2023-05-29T01:10:26.366Z,7.90
2023-05-29T01:12:57.253Z,7.80
2023-05-29T01:15:26.962Z,7.80
2023-05-29T01:18:19.050Z,7.70
2023-05-29T01:20:52.359Z,7.80
2023-05-29T01:23:37.772Z,7.70
2023-05-29T01:26:04.555Z,7.50
2023-05-29T01:28:34.561Z,7.40
2023-05-29T01:31:02.045Z,7.30
2023-05-29T01:33:29.033Z,7.30
2023-05-29T01:35:55.905Z,7.40
2023-05-29T01:38:22.713Z,7.40
2023-05-29T01:40:49.601Z,7.30
2023-05-29T01:43:16.527Z,7.30
2023-05-29T01:45:43.583Z,7.30
2023-05-29T01:48:10.967Z,7.30
2023-05-29T01:50:37.905Z,7.30
2023-05-29T01:53:04.765Z,7.20
2023-05-29T01:55:31.651Z,7.20
2023-05-29T01:57:58.595Z,7.20
2023-05-29T02:00:25.438Z,7.30
2023-05-29T02:02:52.337Z,7.30
2023-05-29T02:05:19.135Z,7.40
2023-05-29T02:07:46.728Z,7.40
2023-05-29T02:10:13.607Z,7.40
2023-05-29T02:12:40.448Z,7.40
2023-05-29T02:15:07.636Z,7.40
2023-05-29T02:17:35.028Z,7.40
2023-05-29T02:20:02.897Z,7.40
2023-05-29T02:22:29.708Z,7.40
2023-05-29T02:24:56.567Z,7.40
2023-05-29T02:27:23.348Z,7.50
2023-05-29T02:29:50.322Z,7.50
2023-05-29T02:32:17.255Z,7.50
2023-05-29T02:34:44.227Z,7.50
2023-05-29T02:37:11.267Z,7.50
2023-05-29T02:39:38.045Z,7.40
2023-05-29T02:42:04.961Z,7.40
2023-05-29T02:44:31.721Z,7.40
2023-05-29T02:46:58.496Z,7.40
2023-05-29T02:49:25.423Z,7.40
2023-05-29T02:51:54.547Z,7.40
2023-05-29T02:54:21.367Z,7.30
2023-05-29T02:56:48.152Z,7.30
2023-05-29T02:59:14.960Z,7.30
2023-05-29T03:01:42.452Z,7.20
2023-05-29T03:04:10.883Z,7.20
2023-05-29T03:06:37.869Z,7.10
2023-05-29T03:09:06.237Z,7.10
2023-05-29T03:11:34.105Z,7.00
2023-05-29T03:14:00.957Z,7.00
2023-05-29T03:16:30.505Z,6.90
2023-05-29T03:18:57.501Z,6.90
2023-05-29T03:21:24.653Z,6.80
2023-05-29T03:23:51.577Z,6.90
2023-05-29T03:26:18.398Z,6.80
2023-05-29T03:28:45.177Z,6.90
2023-05-29T03:31:12.030Z,6.80
2023-05-29T03:33:38.879Z,6.80
2023-05-29T03:36:06.385Z,6.80
2023-05-29T03:38:33.257Z,6.80
2023-05-29T03:41:00.153Z,6.80
2023-05-29T03:43:27.045Z,6.70
2023-05-29T03:45:53.933Z,6.70
2023-05-29T03:48:20.786Z,6.70
2023-05-29T03:50:47.865Z,6.70
2023-05-29T03:53:14.811Z,6.60
2023-05-29T03:55:41.893Z,6.50
2023-05-29T03:58:08.832Z,6.50
2023-05-29T04:00:35.606Z,6.60
2023-05-29T04:03:03.412Z,6.50
2023-05-29T04:05:30.562Z,6.60
2023-05-29T04:08:14.203Z,6.60
2023-05-29T04:10:42.598Z,6.60
2023-05-29T04:13:09.510Z,6.60
2023-05-29T04:15:36.295Z,6.60
2023-05-29T04:18:03.101Z,6.60
2023-05-29T04:20:30.059Z,6.70
2023-05-29T04:22:56.883Z,6.70
2023-05-29T04:25:23.760Z,6.70
2023-05-29T04:27:50.594Z,6.80
2023-05-29T04:30:17.515Z,6.80
2023-05-29T04:32:44.706Z,6.80
2023-05-29T04:35:11.757Z,6.80
2023-05-29T04:37:39.505Z,6.80
2023-05-29T04:40:10.214Z,6.80
2023-05-29T04:42:37.620Z,6.90
2023-05-29T04:45:07.926Z,6.90
2023-05-29T04:47:34.821Z,6.90
2023-05-29T04:50:01.896Z,6.90
2023-05-29T04:52:28.718Z,7.00
2023-05-29T04:54:56.135Z,7.00
2023-05-29T04:57:22.988Z,7.00
2023-05-29T04:59:49.851Z,7.00
2023-05-29T05:02:16.632Z,7.00
2023-05-29T05:04:43.758Z,7.00
2023-05-29T05:07:10.586Z,7.10
2023-05-29T05:09:37.360Z,7.10
2023-05-29T05:12:04.290Z,7.20
2023-05-29T05:14:31.155Z,7.30
2023-05-29T05:16:58.088Z,7.40
2023-05-29T05:19:24.870Z,7.40
2023-05-29T05:21:53.041Z,7.50
2023-05-29T05:24:20.129Z,7.70
2023-05-29T05:26:46.944Z,7.70
2023-05-29T05:29:14.755Z,7.80
2023-05-29T05:31:41.577Z,7.90
2023-05-29T05:34:08.473Z,8.00
2023-05-29T05:36:35.520Z,8.20
2023-05-29T05:39:02.303Z,8.30
2023-05-29T05:41:29.150Z,8.50
2023-05-29T05:43:55.970Z,8.60
2023-05-29T05:46:24.555Z,8.60
2023-05-29T05:48:53.008Z,8.70
2023-05-29T05:51:20.680Z,8.80
2023-05-29T05:53:47.622Z,8.90
2023-05-29T05:56:14.426Z,9.00
2023-05-29T05:58:42.037Z,9.10
2023-05-29T06:01:09.435Z,9.20
2023-05-29T06:03:38.353Z,9.30
2023-05-29T06:06:05.386Z,9.40
2023-05-29T06:08:32.214Z,9.50
2023-05-29T06:10:58.993Z,9.60
2023-05-29T06:13:25.815Z,9.70
2023-05-29T06:15:53.063Z,9.90
2023-05-29T06:18:19.883Z,10.00
2023-05-29T06:20:46.787Z,10.10
2023-05-29T06:23:13.737Z,10.20
2023-05-29T06:25:40.578Z,10.30
2023-05-29T06:28:07.395Z,10.40
2023-05-29T06:30:34.659Z,10.60
2023-05-29T06:33:01.595Z,10.60
2023-05-29T06:35:28.433Z,10.70
2023-05-29T06:37:55.258Z,10.80
2023-05-29T06:40:22.216Z,10.80
2023-05-29T06:42:49.005Z,10.90
2023-05-29T06:45:15.966Z,10.90
2023-05-29T06:47:45.624Z,10.90
2023-05-29T06:50:12.449Z,10.90
2023-05-29T06:52:39.235Z,10.90
2023-05-29T06:55:06.402Z,10.90
2023-05-29T06:57:33.177Z,11.00
2023-05-29T07:00:00.002Z,11.00
2023-05-29T07:02:26.854Z,11.10
2023-05-29T07:04:53.682Z,11.10
2023-05-29T07:07:20.489Z,11.20
2023-05-29T07:09:47.327Z,11.30
2023-05-29T07:12:14.242Z,11.40
2023-05-29T07:14:41.059Z,11.50
2023-05-29T07:17:07.978Z,11.60
2023-05-29T07:19:35.096Z,11.70
2023-05-29T07:22:01.930Z,11.80
2023-05-29T07:24:28.886Z,11.90
2023-05-29T07:26:56.369Z,11.90
2023-05-29T07:29:24.507Z,12.00
2023-05-29T07:31:51.898Z,12.00
2023-05-29T07:34:18.835Z,12.10
2023-05-29T07:36:57.795Z,12.20
2023-05-29T07:39:24.720Z,12.30
2023-05-29T07:41:51.605Z,12.40
2023-05-29T07:44:18.405Z,12.40
2023-05-29T07:46:46.316Z,12.50
2023-05-29T07:49:13.505Z,12.60
2023-05-29T07:51:40.592Z,12.80
2023-05-29T07:54:07.566Z,12.90
2023-05-29T07:56:35.072Z,13.00
2023-05-29T07:59:02.201Z,13.10
2023-05-29T08:01:29.441Z,13.10
2023-05-29T08:03:56.722Z,13.20
2023-05-29T08:06:23.688Z,13.30
2023-05-29T08:08:50.641Z,13.40
2023-05-29T08:11:17.514Z,13.60
2023-05-29T08:13:44.366Z,13.70
2023-05-29T08:16:11.389Z,13.60
2023-05-29T08:18:38.354Z,13.60
2023-05-29T08:21:05.589Z,13.70
2023-05-29T08:23:35.221Z,13.60
2023-05-29T08:26:04.088Z,13.80
2023-05-29T08:28:30.909Z,13.80
2023-05-29T08:30:57.751Z,13.90
2023-05-29T08:33:24.600Z,14.00
2023-05-29T08:35:51.434Z,14.10
2023-05-29T08:38:18.590Z,14.10
2023-05-29T08:40:45.628Z,14.30
2023-05-29T08:43:12.460Z,14.10
2023-05-29T08:45:43.082Z,14.30
2023-05-29T08:48:10.725Z,14.60
2023-05-29T08:50:41.310Z,14.80
2023-05-29T08:53:08.134Z,14.80
2023-05-29T08:55:35.091Z,14.80
2023-05-29T08:58:02.692Z,14.80
2023-05-29T09:00:30.502Z,14.90
2023-05-29T09:02:57.449Z,14.90
2023-05-29T09:05:24.656Z,15.30
2023-05-29T09:07:52.186Z,15.50
2023-05-29T09:10:19.615Z,15.70
2023-05-29T09:12:47.408Z,16.00
2023-05-29T09:15:18.496Z,16.10
2023-05-29T09:17:46.083Z,16.20
2023-05-29T09:20:18.887Z,16.50
2023-05-29T09:22:59.392Z,16.70
2023-05-29T09:25:28.290Z,16.90
2023-05-29T09:28:03.703Z,17.20
2023-05-29T09:30:33.692Z,17.30
2023-05-29T09:33:02.213Z,17.70
2023-05-29T09:35:42.964Z,17.70
2023-05-29T09:38:12.725Z,17.90
2023-05-29T09:40:41.206Z,18.40
2023-05-29T09:43:12.134Z,18.70
2023-05-29T09:45:40.040Z,18.90
2023-05-29T09:48:08.285Z,19.00
2023-05-29T09:50:36.047Z,18.90
2023-05-29T09:53:02.925Z,19.20
2023-05-29T09:55:31.358Z,19.50
2023-05-29T09:57:58.508Z,19.50
2023-05-29T10:00:25.500Z,19.60
2023-05-29T10:02:52.424Z,19.60
2023-05-29T10:05:19.403Z,19.80
2023-05-29T10:07:48.803Z,20.00
2023-05-29T10:10:15.741Z,19.90
2023-05-29T10:12:45.948Z,19.40
2023-05-29T10:15:14.369Z,19.10
2023-05-29T10:17:51.730Z,19.50
2023-05-29T10:20:19.280Z,19.60
2023-05-29T10:22:47.950Z,18.80
2023-05-29T10:25:14.907Z,18.60
2023-05-29T10:27:41.910Z,18.70
2023-05-29T10:30:33.041Z,18.80
2023-05-29T10:33:15.642Z,19.20
2023-05-29T10:35:49.319Z,19.10
2023-05-29T10:38:17.897Z,19.30
2023-05-29T10:40:45.031Z,19.70
2023-05-29T10:43:30.859Z,19.90
2023-05-29T10:45:57.945Z,19.30
2023-05-29T10:48:29.536Z,18.90
2023-05-29T10:50:57.089Z,18.80
2023-05-29T10:53:25.838Z,18.10
2023-05-29T10:55:53.714Z,18.50
2023-05-29T10:58:21.915Z,18.20
2023-05-29T11:00:49.264Z,18.20
2023-05-29T11:03:17.106Z,18.20
2023-05-29T11:06:06.069Z,18.10
2023-05-29T11:08:46.657Z,18.40
2023-05-29T11:11:37.977Z,18.50
2023-05-29T11:14:06.029Z,18.30
2023-05-29T11:16:33.774Z,18.80
2023-05-29T11:19:05.770Z,19.20
2023-05-29T11:21:43.360Z,18.60
2023-05-29T11:24:15.392Z,18.50
2023-05-29T11:26:46.592Z,18.70
2023-05-29T11:29:14.512Z,19.10
2023-05-29T11:31:41.782Z,18.90
2023-05-29T11:34:10.615Z,19.10
2023-05-29T11:36:38.230Z,19.10
2023-05-29T11:39:05.068Z,19.10
2023-05-29T11:41:32.014Z,19.40
2023-05-29T11:44:06.961Z,19.20
2023-05-29T11:46:35.319Z,19.10
2023-05-29T11:49:02.650Z,19.60
2023-05-29T11:51:29.656Z,19.90
2023-05-29T11:53:59.577Z,19.80
2023-05-29T11:56:27.546Z,19.60
2023-05-29T11:58:58.876Z,19.30
2023-05-29T12:01:26.385Z,19.30
2023-05-29T12:03:53.637Z,19.40
2023-05-29T12:06:38.657Z,19.80
2023-05-29T12:09:06.404Z,19.50
2023-05-29T12:11:35.597Z,19.70
2023-05-29T12:14:03.085Z,20.00
2023-05-29T12:16:31.769Z,20.00
2023-05-29T12:18:58.815Z,19.80
2023-05-29T12:21:26.207Z,20.00
2023-05-29T12:24:02.906Z,19.80
2023-05-29T12:26:37.577Z,19.20
2023-05-29T12:29:06.395Z,19.20
2023-05-29T12:31:35.151Z,18.90
2023-05-29T12:34:03.480Z,18.70
2023-05-29T12:36:30.416Z,18.80
2023-05-29T12:38:59.129Z,18.90
2023-05-29T12:41:27.632Z,19.30
2023-05-29T12:43:58.305Z,19.20
2023-05-29T12:46:28.535Z,19.70
2023-05-29T12:48:56.075Z,20.30
2023-05-29T12:51:29.468Z,20.40
2023-05-29T12:53:58.665Z,19.90
2023-05-29T12:56:27.677Z,20.00
2023-05-29T12:58:54.548Z,19.80
2023-05-29T13:01:23.037Z,19.60
2023-05-29T13:03:50.329Z,19.80
2023-05-29T13:06:17.291Z,20.30
2023-05-29T13:08:44.173Z,20.50
2023-05-29T13:11:10.982Z,20.00
2023-05-29T13:13:37.888Z,19.60
2023-05-29T13:16:04.835Z,19.00
2023-05-29T13:18:32.125Z,19.30
2023-05-29T13:21:00.485Z,19.30
2023-05-29T13:23:29.253Z,19.30
2023-05-29T13:25:56.442Z,19.20
2023-05-29T13:28:25.680Z,19.00
2023-05-29T13:30:52.474Z,18.20
2023-05-29T13:33:19.317Z,18.40
2023-05-29T13:35:46.237Z,18.20
2023-05-29T13:38:13.044Z,17.80
2023-05-29T13:43:07.446Z,16.90
2023-05-29T13:45:34.243Z,17.20
2023-05-29T13:48:01.116Z,16.60
2023-05-29T13:50:28.300Z,16.80
2023-05-29T13:52:55.138Z,16.60
2023-05-29T13:55:22.123Z,16.80
2023-05-29T13:57:48.992Z,17.00
2023-05-29T14:00:16.022Z,17.00
2023-05-29T14:05:12.051Z,16.40
2023-05-29T14:07:39.078Z,16.20
2023-05-29T14:10:06.578Z,15.50
2023-05-29T14:12:33.591Z,15.00
2023-05-29T14:15:02.003Z,14.70
2023-05-29T14:17:33.549Z,14.50
2023-05-29T14:20:06.262Z,14.70
2023-05-29T14:22:33.454Z,14.40
2023-05-29T14:25:01.412Z,14.30
2023-05-29T14:27:28.234Z,14.40
2023-05-29T14:29:55.093Z,14.40
2023-05-29T14:32:21.990Z,14.20
2023-05-29T14:34:49.552Z,14.20
2023-05-29T14:37:16.409Z,14.30
2023-05-29T14:39:43.251Z,14.10
2023-05-29T14:42:10.176Z,14.30
2023-05-29T14:44:37.006Z,14.70
2023-05-29T14:47:05.068Z,15.10
2023-05-29T14:49:33.328Z,15.00
2023-05-29T14:52:00.274Z,15.20
2023-05-29T14:54:29.073Z,15.10
2023-05-29T14:56:56.104Z,15.10
2023-05-29T14:59:26.515Z,14.80
2023-05-29T15:01:59.122Z,14.40
2023-05-29T15:04:25.940Z,14.20
2023-05-29T15:07:06.197Z,14.40
2023-05-29T15:09:34.342Z,14.20
2023-05-29T15:12:02.359Z,14.30
2023-05-29T15:14:29.400Z,14.20
2023-05-29T15:16:57.408Z,14.30
2023-05-29T15:19:24.342Z,14.20
2023-05-29T15:21:51.347Z,14.10
2023-05-29T15:24:24.678Z,14.10
2023-05-29T15:26:51.793Z,14.10
2023-05-29T15:29:19.001Z,14.10
2023-05-29T15:31:45.881Z,13.80
2023-05-29T15:34:12.756Z,13.70
2023-05-29T15:36:43.159Z,13.80
2023-05-29T15:39:10.202Z,13.90
2023-05-29T15:41:37.261Z,13.80
2023-05-29T15:44:05.204Z,13.60
2023-05-29T15:46:32.277Z,13.60
2023-05-29T15:48:59.249Z,13.60
2023-05-29T15:51:26.566Z,13.70
2023-05-29T15:53:54.277Z,13.50
2023-05-29T15:56:33.955Z,13.60
2023-05-29T15:59:01.055Z,13.70
2023-05-29T16:01:28.282Z,13.70
2023-05-29T16:03:56.674Z,13.90
2023-05-29T16:12:19.986Z,14.00
2023-05-29T16:14:47.221Z,14.30
2023-05-29T16:17:14.194Z,14.50
2023-05-29T16:19:41.349Z,14.90
2023-05-29T16:22:08.369Z,15.30
2023-05-29T16:24:35.242Z,15.50
2023-05-29T16:27:04.705Z,15.70
2023-05-29T16:29:31.692Z,15.80
2023-05-29T16:31:58.567Z,16.30
2023-05-29T16:34:25.442Z,16.40
2023-05-29T16:36:52.599Z,16.40
2023-05-29T16:39:22.999Z,16.50
2023-05-29T16:41:50.200Z,16.60
2023-05-29T16:44:17.111Z,16.70
2023-05-29T16:46:43.890Z,16.90
2023-05-29T16:49:11.497Z,16.90
2023-05-29T16:51:38.790Z,16.70
2023-05-29T16:54:05.798Z,16.80
2023-05-29T16:56:32.659Z,17.10
2023-05-29T16:58:59.637Z,17.20
2023-05-29T17:01:26.534Z,16.90
2023-05-29T17:03:53.588Z,17.40
2023-05-29T17:06:20.648Z,17.30
2023-05-29T17:08:47.449Z,17.40
2023-05-29T17:11:14.288Z,17.10
2023-05-29T17:13:41.082Z,16.90
2023-05-29T17:16:07.863Z,17.10
2023-05-29T17:18:34.685Z,17.10
2023-05-29T17:21:01.468Z,17.20
2023-05-29T17:23:28.330Z,17.20
2023-05-29T17:25:56.334Z,16.80
2023-05-29T17:28:23.500Z,16.80
2023-05-29T17:30:50.480Z,17.00
2023-05-29T17:33:17.717Z,17.00
2023-05-29T17:35:44.553Z,16.80
2023-05-29T17:38:11.398Z,16.80
2023-05-29T17:40:38.392Z,17.10
2023-05-29T17:45:32.679Z,16.80
2023-05-29T17:47:59.510Z,16.50
2023-05-29T17:50:26.307Z,15.80
2023-05-29T17:52:53.098Z,15.80
2023-05-29T17:55:20.164Z,15.40
2023-05-29T17:57:47.144Z,15.20
2023-05-29T18:00:14.259Z,15.00
2023-05-29T18:02:41.219Z,14.60
2023-05-29T18:05:08.589Z,14.60
2023-05-29T18:07:35.551Z,14.50
2023-05-29T18:10:02.415Z,14.20
2023-05-29T18:12:41.102Z,14.20
2023-05-29T18:15:11.790Z,14.30
2023-05-29T18:17:38.647Z,14.40
2023-05-29T18:20:06.437Z,14.30
2023-05-29T18:22:33.283Z,14.30
2023-05-29T18:25:00.111Z,14.30
2023-05-29T18:27:26.999Z,14.40
2023-05-29T18:29:53.890Z,14.40
2023-05-29T18:32:22.004Z,14.20
2023-05-29T18:34:48.992Z,14.30
2023-05-29T18:37:16.913Z,14.20
2023-05-29T18:39:43.851Z,14.30
2023-05-29T18:42:10.695Z,14.30
2023-05-29T18:44:37.580Z,14.40
2023-05-29T18:47:04.577Z,14.50
2023-05-29T18:49:31.892Z,14.60
2023-05-29T18:51:59.243Z,14.70
2023-05-29T18:54:26.157Z,14.70
2023-05-29T18:56:53.020Z,14.60
2023-05-29T18:59:19.889Z,14.60
2023-05-29T19:01:47.053Z,14.70
2023-05-29T19:04:15.171Z,14.70
2023-05-29T19:06:42.306Z,14.80
2023-05-29T19:09:09.796Z,14.70
2023-05-29T19:11:37.010Z,14.70
2023-05-29T19:14:04.504Z,14.60
2023-05-29T19:16:31.299Z,14.50
2023-05-29T19:19:00.531Z,14.50
2023-05-29T19:21:27.702Z,14.60
2023-05-29T19:23:57.615Z,14.60
2023-05-29T19:26:24.835Z,14.60
2023-05-29T19:28:52.448Z,14.40
2023-05-29T19:31:20.742Z,14.30
2023-05-29T19:33:47.718Z,14.30
2023-05-29T19:36:14.771Z,14.20
2023-05-29T19:38:41.575Z,14.10
2023-05-29T19:41:08.415Z,14.20
2023-05-29T19:43:35.331Z,14.20
2023-05-29T19:46:06.515Z,14.10
2023-05-29T19:48:38.201Z,14.20
2023-05-29T19:51:05.798Z,14.20
2023-05-29T19:53:32.720Z,14.20
2023-05-29T19:55:59.576Z,14.20
2023-05-29T19:58:26.650Z,14.10
2023-05-29T20:00:56.310Z,13.90
2023-05-29T20:03:23.466Z,13.70
2023-05-29T20:05:51.176Z,13.70
2023-05-29T20:08:18.139Z,13.60
2023-05-29T20:10:47.906Z,13.60
2023-05-29T20:13:19.326Z,13.50
2023-05-29T20:15:46.838Z,13.50
2023-05-29T20:18:13.787Z,13.40
2023-05-29T20:20:42.129Z,13.40
2023-05-29T20:23:09.112Z,13.40
2023-05-29T20:25:35.943Z,13.20
2023-05-29T20:28:02.895Z,13.00
2023-05-29T20:30:30.605Z,13.00
2023-05-29T20:32:57.954Z,12.80
2023-05-29T20:37:56.128Z,12.90
2023-05-29T20:40:23.059Z,12.90
2023-05-29T20:42:49.980Z,12.90
2023-05-29T20:45:19.307Z,12.90
2023-05-29T20:47:46.196Z,12.90
2023-05-29T20:50:13.580Z,12.80
2023-05-29T20:52:40.587Z,12.70
2023-05-29T20:55:07.753Z,12.70
2023-05-29T20:57:34.724Z,12.60
2023-05-29T21:00:01.717Z,12.50
2023-05-29T21:02:29.068Z,12.50
2023-05-29T21:04:57.027Z,12.50
2023-05-29T21:07:24.246Z,12.40
2023-05-29T21:09:51.060Z,12.40
2023-05-29T21:12:17.838Z,12.40
2023-05-29T21:14:44.667Z,12.40
2023-05-29T21:17:11.443Z,12.30
2023-05-29T21:19:38.270Z,12.30
2023-05-29T21:22:05.147Z,12.20
2023-05-29T21:24:32.192Z,12.20
2023-05-29T21:26:59.122Z,12.20
2023-05-29T21:29:26.031Z,12.20
2023-05-29T21:31:52.943Z,12.10
2023-05-29T21:34:21.024Z,11.90
2023-05-29T21:36:49.272Z,11.90
2023-05-29T21:39:17.887Z,12.00
2023-05-29T21:41:44.770Z,11.90
2023-05-29T21:44:11.580Z,11.80
2023-05-29T21:46:38.906Z,11.70
2023-05-29T21:49:05.771Z,11.70
2023-05-29T21:51:34.161Z,11.70
2023-05-29T21:54:00.982Z,11.70
2023-05-29T21:56:29.131Z,11.70
2023-05-29T21:58:56.135Z,11.70
2023-05-29T22:01:22.990Z,11.70
2023-05-29T22:03:52.084Z,11.70
2023-05-29T22:06:18.909Z,11.60
2023-05-29T22:08:46.913Z,11.60
2023-05-29T22:11:13.978Z,11.50
2023-05-29T22:13:40.876Z,11.40
2023-05-29T22:16:08.575Z,11.30
2023-05-29T22:18:38.045Z,11.30
2023-05-29T22:21:06.495Z,11.20
2023-05-29T22:23:33.322Z,11.20
2023-05-29T22:26:01.780Z,11.10
2023-05-29T22:28:29.223Z,11.10
2023-05-29T22:30:56.420Z,11.20
2023-05-29T22:33:23.629Z,11.20
2023-05-29T22:35:51.811Z,11.20
2023-05-29T22:38:19.344Z,11.10
2023-05-29T22:40:46.236Z,11.20
2023-05-29T22:43:13.536Z,11.10
2023-05-29T22:45:40.381Z,11.20
2023-05-29T22:48:07.217Z,11.20
2023-05-29T22:50:34.367Z,11.20
2023-05-29T22:53:01.256Z,11.10
2023-05-29T22:55:28.238Z,11.10
2023-05-29T22:57:56.614Z,11.00
2023-05-29T23:00:25.107Z,10.80
2023-05-29T23:02:51.993Z,10.80
2023-05-29T23:05:19.565Z,10.80
2023-05-29T23:07:46.656Z,10.70
2023-05-29T23:10:13.629Z,10.70
2023-05-29T23:12:40.558Z,10.60
2023-05-29T23:15:07.964Z,10.60
2023-05-29T23:17:34.854Z,10.60
2023-05-29T23:20:02.139Z,10.60
2023-05-29T23:22:29.144Z,10.50
2023-05-29T23:24:55.945Z,10.50
2023-05-29T23:27:22.798Z,10.50
2023-05-29T23:29:49.666Z,10.50
2023-05-29T23:32:16.595Z,10.50
2023-05-29T23:34:43.737Z,10.40
2023-05-29T23:37:11.278Z,10.40
2023-05-29T23:39:38.125Z,10.30
2023-05-29T23:42:05.245Z,10.30
2023-05-29T23:44:32.421Z,10.20
2023-05-29T23:46:59.277Z,10.20
2023-05-29T23:49:28.905Z,10.10
2023-05-29T23:51:56.604Z,10.20
2023-05-29T23:54:23.845Z,10.20
2023-05-29T23:56:50.641Z,10.10
2023-05-29T23:59:18.371Z,10.00
